Pagrindinis puslapis
METAR-TAF:

METAR-TAF

Oro uostai :

Arasatuba, San Paulas, Brazilija

platuma: 21-08-39S, ilguma: 050-25-35W, Aukštis: 415 m

Dabartinis oras

Ataskaita buvo paskelbta 13 valandos ir 6 minutes, ne 09:00 UTC
Vėjas 8 kt iš Rytų/Šiaurės Rytų
Temperatūra 25°C
Drėgmė 36%
Slėgis 1014 hPa
Matomumas 10 km arba daugiau
nėra debesų žemiau 1500 m ir nėra kamuolinių lietaus debesų

METAR: SBAU 160900Z 06008KT CAVOK 25/09 Q1014

Laikas: 19:06 (22:06 UTC)


TAF: trūkstamas

Orai ataskaitas ir orų prognozės (METAR, TAF).

turimą stotys yra geltonos ir raudonos taškus žemėlapyje.

Perkelti pele per norėdami pamatyti stoties vardą.

Tada spustelėkite, norėdami matyti oro stebėjimo ir prognozės.

Norėdami pakeisti žemėlapį: spustelėkite ant žalios mygtukų su juodo kryžiaus žemyn,; žalią mygtuką su brūkšneliu, jei norite nutolinti; arba žalių rodyklių gretimoms žemėlapius.


METAR-TAF: